Time;durP1;ratioP1;P1;durP2;ratioP2;P2;SDS_P1;SDS_P2;PMS_P1;PMS_P2;Temp;Humidity;BMP_temperature;BMP_pressure;BME280_temperature;BME280_humidity;BME280_pressure;Samples;Min_cycle;Max_cycle;Signal;HPM_P1;HPM_P2
2021/12/12 00:02:29;;;;;;;0.00;0.00;;;5.70;90.80;;;;;;3915492;30;20053;-58
2021/12/12 00:04:54;;;;;;;0.00;0.00;;;5.70;90.60;;;;;;3905503;30;20718;-60
2021/12/12 00:07:21;;;;;;;0.00;0.00;;;5.60;90.70;;;;;;3915523;30;20049;-58
2021/12/12 00:09:47;;;;;;;0.00;0.00;;;5.60;90.70;;;;;;3915373;30;20055;-59
2021/12/12 00:12:28;;;;;;;0.00;0.00;;;5.70;90.60;;;;;;3914735;30;20489;-58
2021/12/12 00:14:51;;;;;;;0.00;0.00;;;5.70;90.60;;;;;;3915288;30;20454;-58
2021/12/12 00:17:14;;;;;;;0.00;0.00;;;5.70;90.50;;;;;;3915394;30;20591;-58
2021/12/12 00:19:37;;;;;;;0.00;0.00;;;5.70;90.50;;;;;;3927544;30;20147;-58
2021/12/12 00:22:03;;;;;;;0.00;0.00;;;5.80;90.50;;;;;;3902623;30;20424;-58
2021/12/12 00:24:27;;;;;;;0.00;0.00;;;5.70;90.40;;;;;;3915344;30;20139;-58
2021/12/12 00:26:52;;;;;;;0.00;0.00;;;5.70;90.50;;;;;;3915258;30;20148;-58
2021/12/12 00:29:16;;;;;;;0.00;0.00;;;5.60;90.50;;;;;;3914986;30;20543;-58
2021/12/12 00:31:40;;;;;;;0.00;0.00;;;5.50;90.50;;;;;;3915035;30;20471;-58
2021/12/12 00:34:03;;;;;;;0.00;0.00;;;5.40;90.70;;;;;;3914465;30;20114;-58
2021/12/12 00:36:27;;;;;;;0.00;0.00;;;5.30;90.80;;;;;;3917330;30;20065;-58
2021/12/12 00:39:06;;;;;;;0.00;0.00;;;5.20;91.10;;;;;;3917129;30;20060;-58
2021/12/12 00:41:37;;;;;;;0.00;0.00;;;5.10;91.40;;;;;;3917110;30;20080;-58
2021/12/12 00:44:02;;;;;;;0.00;0.00;;;5.20;91.30;;;;;;3916636;30;20053;-58
2021/12/12 00:46:27;;;;;;;0.00;0.00;;;5.10;91.50;;;;;;3917185;30;20135;-58
2021/12/12 00:48:51;;;;;;;0.00;0.00;;;5.00;91.90;;;;;;3917255;30;20144;-58
2021/12/12 00:51:16;;;;;;;0.00;0.00;;;4.90;92.10;;;;;;3916921;30;20052;-58
2021/12/12 00:53:40;;;;;;;0.00;0.00;;;4.70;92.20;;;;;;3929368;30;20497;-58
2021/12/12 00:56:04;;;;;;;0.00;0.00;;;4.70;92.40;;;;;;3916861;30;20144;-58
2021/12/12 00:58:27;;;;;;;0.00;0.00;;;4.80;92.30;;;;;;3917099;30;20144;-57
2021/12/12 01:00:55;;;;;;;0.00;0.00;;;4.90;92.30;;;;;;3916886;30;20099;-58
2021/12/12 01:03:26;;;;;;;0.00;0.00;;;4.90;92.20;;;;;;3916940;30;20064;-58
2021/12/12 01:05:51;;;;;;;0.00;0.00;;;4.80;92.20;;;;;;3904408;30;20189;-58
2021/12/12 01:08:15;;;;;;;0.00;0.00;;;4.70;92.40;;;;;;3916955;30;20056;-58
2021/12/12 01:10:43;;;;;;;0.00;0.00;;;4.60;92.60;;;;;;3916650;30;20143;-57
2021/12/12 01:13:07;;;;;;;0.00;0.00;;;4.60;92.80;;;;;;3916736;30;20072;-58
2021/12/12 01:15:52;;;;;;;0.00;0.00;;;4.60;92.90;;;;;;3916860;30;20084;-58
2021/12/12 01:18:32;;;;;;;0.00;0.00;;;4.70;92.80;;;;;;3928804;30;20092;-57
2021/12/12 01:21:11;;;;;;;0.00;0.00;;;4.80;92.60;;;;;;3916689;30;20515;-57
2021/12/12 01:23:48;;;;;;;0.00;0.00;;;4.90;92.40;;;;;;3917001;30;20524;-58
2021/12/12 01:26:11;;;;;;;0.00;0.00;;;5.00;92.30;;;;;;3916611;30;20153;-60
2021/12/12 01:28:36;;;;;;;0.00;0.00;;;4.90;92.30;;;;;;3916702;30;20063;-58
2021/12/12 01:31:02;;;;;;;0.00;0.00;;;4.90;92.30;;;;;;3916520;30;20060;-58
2021/12/12 01:33:35;;;;;;;0.00;0.00;;;4.80;92.40;;;;;;3928994;30;20139;-58
2021/12/12 01:36:08;;;;;;;0.00;0.00;;;4.70;92.50;;;;;;3904053;30;20075;-59
2021/12/12 01:41:13;;;;;;;0.00;0.00;;;4.80;92.70;;;;;;3916723;30;20049;-60
2021/12/12 01:43:45;;;;;;;0.00;0.00;;;4.80;92.60;;;;;;3916715;30;20068;-59
2021/12/12 01:46:31;;;;;;;0.00;0.00;;;4.90;92.60;;;;;;3915873;30;20123;-59
2021/12/12 01:49:03;;;;;;;0.00;0.00;;;5.00;92.40;;;;;;3916662;30;20608;-57
2021/12/12 01:51:28;;;;;;;0.00;0.00;;;5.00;92.30;;;;;;3916394;30;20053;-58
2021/12/12 01:53:53;;;;;;;0.00;0.00;;;5.10;92.20;;;;;;3916311;30;20048;-58
2021/12/12 01:56:27;;;;;;;0.00;0.00;;;5.10;92.00;;;;;;3916658;30;20069;-59
2021/12/12 01:58:54;;;;;;;0.00;0.00;;;5.00;92.10;;;;;;3916433;30;20088;-58
2021/12/12 02:01:28;;;;;;;0.00;0.00;;;4.90;92.10;;;;;;3904087;30;20504;-58
2021/12/12 02:04:04;;;;;;;0.00;0.00;;;5.00;92.10;;;;;;3916134;30;20122;-61
2021/12/12 02:06:27;;;;;;;0.00;0.00;;;5.00;92.20;;;;;;3916542;30;20063;-58
2021/12/12 02:08:52;;;;;;;0.00;0.00;;;5.00;92.20;;;;;;3904292;30;20473;-58
2021/12/12 02:11:29;;;;;;;0.00;0.00;;;4.90;92.10;;;;;;3928368;30;20052;-56
2021/12/12 02:13:55;;;;;;;0.00;0.00;;;4.90;92.10;;;;;;3915902;30;20143;-59
2021/12/12 02:16:20;;;;;;;0.00;0.00;;;4.90;92.10;;;;;;3916463;30;20111;-59
2021/12/12 02:18:48;;;;;;;0.00;0.00;;;4.90;92.10;;;;;;3904081;30;20049;-58
2021/12/12 02:21:24;;;;;;;0.00;0.00;;;4.90;92.10;;;;;;3915982;30;20122;-58
2021/12/12 02:37:19;;;;;;;;;;;5.10;91.90;;;;;;3916746;30;20424;-59
2021/12/12 02:39:41;;;;;;;0.00;0.00;;;5.00;91.80;;;;;;3916177;30;19934;-59
2021/12/12 02:42:08;;;;;;;0.00;0.00;;;5.00;91.90;;;;;;3915554;30;20427;-57
2021/12/12 02:44:33;;;;;;;0.00;0.00;;;5.00;92.00;;;;;;3916457;30;20052;-59
2021/12/12 02:46:59;;;;;;;0.00;0.00;;;5.00;91.90;;;;;;3916694;30;20045;-58
2021/12/12 02:49:36;;;;;;;0.00;0.00;;;4.90;92.00;;;;;;3916433;30;20109;-59
2021/12/12 02:51:58;;;;;;;0.00;0.00;;;4.90;92.00;;;;;;3915781;30;20591;-59
2021/12/12 02:54:22;;;;;;;0.00;0.00;;;4.80;92.10;;;;;;3928675;30;20052;-59
2021/12/12 02:56:48;;;;;;;0.00;0.00;;;4.80;92.20;;;;;;3917155;30;20094;-58
2021/12/12 02:59:14;;;;;;;0.00;0.00;;;4.90;92.00;;;;;;3918925;30;20092;-59
2021/12/12 03:01:48;;;;;;;0.00;0.00;;;4.90;91.90;;;;;;3930934;30;20649;-58
2021/12/12 03:04:11;;;;;;;0.00;0.00;;;4.90;92.00;;;;;;3918651;30;20137;-59
2021/12/12 03:06:39;;;;;;;0.00;0.00;;;4.80;91.80;;;;;;3931375;30;20079;-59
2021/12/12 03:09:15;;;;;;;0.00;0.00;;;4.80;91.80;;;;;;3918743;30;20135;-59
2021/12/12 03:11:38;;;;;;;0.00;0.00;;;4.80;91.70;;;;;;3918508;30;20056;-59
2021/12/12 03:14:01;;;;;;;0.00;0.00;;;4.70;91.70;;;;;;3918470;30;20052;-58
2021/12/12 03:16:24;;;;;;;0.00;0.00;;;4.50;91.70;;;;;;3919142;30;20701;-59
2021/12/12 03:18:47;;;;;;;0.00;0.00;;;4.20;92.20;;;;;;3918686;30;20057;-57
2021/12/12 03:21:31;;;;;;;0.00;0.00;;;4.00;92.80;;;;;;3918640;30;20433;-58
2021/12/12 03:23:55;;;;;;;0.00;0.00;;;4.00;93.00;;;;;;3918124;30;20049;-58
2021/12/12 03:26:19;;;;;;;0.00;0.00;;;4.10;92.80;;;;;;3918599;30;20144;-59
2021/12/12 03:28:46;;;;;;;0.00;0.00;;;4.10;92.70;;;;;;3918482;30;20508;-58
2021/12/12 03:31:13;;;;;;;0.00;0.00;;;4.10;92.80;;;;;;3918034;30;20049;-60
2021/12/12 03:33:36;;;;;;;0.00;0.00;;;4.10;92.70;;;;;;3918214;30;20063;-59
2021/12/12 03:36:02;;;;;;;0.00;0.00;;;4.10;92.80;;;;;;3917751;30;20056;-59
2021/12/12 03:38:27;;;;;;;0.00;0.00;;;4.10;92.80;;;;;;3918434;30;20405;-59
2021/12/12 03:40:50;;;;;;;0.00;0.00;;;4.10;92.90;;;;;;3917944;30;20145;-59
2021/12/12 03:43:14;;;;;;;0.00;0.00;;;4.10;92.80;;;;;;3917968;30;20103;-59
2021/12/12 03:45:38;;;;;;;0.00;0.00;;;4.10;92.80;;;;;;3931452;30;20069;-59
2021/12/12 03:48:10;;;;;;;0.00;0.00;;;4.10;92.80;;;;;;3917702;30;20057;-59
2021/12/12 03:50:35;;;;;;;0.00;0.00;;;4.10;92.80;;;;;;3917981;30;20928;-59
2021/12/12 03:52:59;;;;;;;0.00;0.00;;;4.10;92.80;;;;;;3918345;30;20059;-59
2021/12/12 03:55:23;;;;;;;0.00;0.00;;;4.10;92.90;;;;;;3918238;30;20114;-59
2021/12/12 03:57:49;;;;;;;0.00;0.00;;;4.10;92.90;;;;;;3917543;30;20114;-59
2021/12/12 04:00:17;;;;;;;0.00;0.00;;;4.10;92.80;;;;;;3917779;30;20052;-59
2021/12/12 04:02:40;;;;;;;0.00;0.00;;;4.10;92.80;;;;;;3918094;30;20056;-59
2021/12/12 04:05:04;;;;;;;0.00;0.00;;;4.10;92.90;;;;;;3917997;30;20168;-57
2021/12/12 04:07:29;;;;;;;0.00;0.00;;;4.10;92.90;;;;;;3917926;30;20479;-57
2021/12/12 04:09:51;;;;;;;0.00;0.00;;;4.10;92.90;;;;;;3916802;30;20145;-58
2021/12/12 04:12:16;;;;;;;0.00;0.00;;;4.10;92.80;;;;;;3917504;30;20048;-59
2021/12/12 04:14:40;;;;;;;0.00;0.00;;;4.10;92.80;;;;;;3917847;30;20049;-58
2021/12/12 04:17:13;;;;;;;0.00;0.00;;;4.20;92.80;;;;;;3917852;30;20063;-59
2021/12/12 04:19:36;;;;;;;0.00;0.00;;;4.20;92.80;;;;;;3917776;30;20056;-58
2021/12/12 04:22:00;;;;;;;0.00;0.00;;;4.30;92.70;;;;;;3929315;30;20064;-58
2021/12/12 04:24:29;;;;;;;0.00;0.00;;;4.30;92.60;;;;;;3917707;30;20245;-58
2021/12/12 04:26:52;;;;;;;0.00;0.00;;;4.30;92.50;;;;;;3917600;30;20505;-59
2021/12/12 04:29:18;;;;;;;0.00;0.00;;;4.20;92.40;;;;;;3917588;30;20557;-59
2021/12/12 04:31:48;;;;;;;0.00;0.00;;;4.10;92.60;;;;;;3917369;30;20482;-59
2021/12/12 04:34:11;;;;;;;0.00;0.00;;;4.10;92.60;;;;;;3916899;30;20087;-59
2021/12/12 04:36:38;;;;;;;0.00;0.00;;;4.00;92.60;;;;;;3917542;30;20061;-59
2021/12/12 04:39:06;;;;;;;0.00;0.00;;;3.90;92.70;;;;;;3929517;30;20056;-59
2021/12/12 04:41:29;;;;;;;0.00;0.00;;;3.90;92.70;;;;;;3917127;30;20061;-59
2021/12/12 04:43:51;;;;;;;0.00;0.00;;;3.80;92.80;;;;;;3917348;30;20078;-59
2021/12/12 04:46:22;;;;;;;0.00;0.00;;;3.60;93.10;;;;;;3917332;30;20040;-59
2021/12/12 04:51:37;;;;;;;0.00;0.00;;;3.70;93.00;;;;;;3916355;30;20044;-59
2021/12/12 04:54:23;;;;;;;0.00;0.00;;;3.70;92.80;;;;;;3916750;30;20092;-62
2021/12/12 04:56:51;;;;;;;0.00;0.00;;;3.80;92.50;;;;;;3917204;30;20056;-59
2021/12/12 04:59:46;;;;;;;0.00;0.00;;;3.80;92.40;;;;;;3929253;30;20131;-59
2021/12/12 05:02:31;;;;;;;0.00;0.00;;;3.80;92.10;;;;;;3916494;30;20490;-59
2021/12/12 05:05:06;;;;;;;0.00;0.00;;;3.60;92.10;;;;;;3916960;30;20059;-58
2021/12/12 05:07:46;;;;;;;0.00;0.00;;;3.40;92.40;;;;;;3916977;30;20045;-58
2021/12/12 05:10:30;;;;;;;0.00;0.00;;;3.50;92.60;;;;;;3916617;30;20045;-58
2021/12/12 05:13:15;;;;;;;0.00;0.00;;;3.40;92.90;;;;;;3917074;30;20048;-57
2021/12/12 05:15:42;;;;;;;0.00;0.00;;;3.20;93.40;;;;;;3916858;30;20060;-57
2021/12/12 05:18:19;;;;;;;0.00;0.00;;;3.30;93.60;;;;;;3916456;30;20504;-59
2021/12/12 05:20:47;;;;;;;0.00;0.00;;;3.30;93.70;;;;;;3915630;30;20139;-58
2021/12/12 05:23:14;;;;;;;0.00;0.00;;;3.30;93.80;;;;;;3916874;30;20059;-58
2021/12/12 05:25:52;;;;;;;0.00;0.00;;;3.30;94.00;;;;;;3904576;30;20551;-58
2021/12/12 05:28:18;;;;;;;0.00;0.00;;;3.20;94.20;;;;;;3928574;30;20068;-58
2021/12/12 05:30:41;;;;;;;0.00;0.00;;;3.10;94.50;;;;;;3916574;30;20574;-57
2021/12/12 05:33:05;;;;;;;0.00;0.00;;;3.10;94.80;;;;;;3904742;30;20120;-58
2021/12/12 05:35:33;;;;;;;0.00;0.00;;;3.10;95.00;;;;;;3916864;30;20499;-59
2021/12/12 05:38:01;;;;;;;0.00;0.00;;;3.10;95.10;;;;;;3916222;30;20056;-59
2021/12/12 05:40:29;;;;;;;0.00;0.00;;;3.10;95.10;;;;;;3916941;30;20061;-59
2021/12/12 05:42:54;;;;;;;0.00;0.00;;;3.20;95.10;;;;;;3916891;30;20448;-59
2021/12/12 05:45:17;;;;;;;0.00;0.00;;;3.30;95.00;;;;;;3916472;30;20060;-59
2021/12/12 05:47:39;;;;;;;0.00;0.00;;;3.30;94.90;;;;;;3916470;30;20106;-58
2021/12/12 05:50:06;;;;;;;0.00;0.00;;;3.40;94.80;;;;;;3915967;30;20571;-58
2021/12/12 05:52:28;;;;;;;0.00;0.00;;;3.40;94.80;;;;;;3916446;30;20137;-59
2021/12/12 05:54:52;;;;;;;0.00;0.00;;;3.30;95.00;;;;;;3916447;30;20066;-59
2021/12/12 05:57:19;;;;;;;0.00;0.00;;;3.20;95.30;;;;;;3916413;30;20057;-59
2021/12/12 05:59:42;;;;;;;0.00;0.00;;;3.10;95.50;;;;;;3916409;30;20543;-59
2021/12/12 06:02:06;;;;;;;0.00;0.00;;;3.30;95.50;;;;;;3915718;30;20091;-59
2021/12/12 06:04:28;;;;;;;0.00;0.00;;;3.40;95.40;;;;;;3916525;30;20129;-59
2021/12/12 06:06:51;;;;;;;0.00;0.00;;;3.50;95.30;;;;;;3916299;30;20489;-58
2021/12/12 06:09:16;;;;;;;0.00;0.00;;;3.50;95.10;;;;;;3916347;30;20585;-58
2021/12/12 06:11:42;;;;;;;0.00;0.00;;;3.40;94.90;;;;;;3916112;30;20063;-59
2021/12/12 06:14:07;;;;;;;0.00;0.00;;;3.40;94.10;;;;;;3915924;30;20534;-59
2021/12/12 06:16:32;;;;;;;0.00;0.00;;;3.40;93.70;;;;;;3916188;30;20056;-58
2021/12/12 06:19:02;;;;;;;0.00;0.00;;;3.40;93.40;;;;;;3916250;30;20149;-59
2021/12/12 06:21:26;;;;;;;0.00;0.00;;;3.40;93.20;;;;;;3916003;30;20060;-59
2021/12/12 06:23:48;;;;;;;0.00;0.00;;;3.50;93.10;;;;;;3928270;30;20201;-59
2021/12/12 06:26:11;;;;;;;0.00;0.00;;;3.50;93.00;;;;;;3915948;30;20144;-58
2021/12/12 06:28:38;;;;;;;0.00;0.00;;;3.40;93.40;;;;;;3916328;30;20487;-58
2021/12/12 06:31:03;;;;;;;0.00;0.00;;;3.50;93.70;;;;;;3915882;30;20122;-58
2021/12/12 06:33:27;;;;;;;0.00;0.00;;;3.60;93.80;;;;;;3919079;30;20060;-59
2021/12/12 06:35:49;;;;;;;0.00;0.00;;;3.60;93.90;;;;;;3918542;30;20090;-59
2021/12/12 06:38:13;;;;;;;0.00;0.00;;;3.60;93.90;;;;;;3919184;30;20102;-57
2021/12/12 06:40:36;;;;;;;0.00;0.00;;;3.60;94.00;;;;;;3906461;30;20495;-59
2021/12/12 06:43:05;;;;;;;0.00;0.00;;;3.60;94.20;;;;;;3918878;30;20099;-58
2021/12/12 06:45:28;;;;;;;0.00;0.00;;;3.70;94.30;;;;;;3918871;30;20091;-58
2021/12/12 06:47:50;;;;;;;0.00;0.00;;;3.70;94.20;;;;;;3918571;30;20571;-59
2021/12/12 06:50:13;;;;;;;0.00;0.00;;;3.70;94.50;;;;;;3919093;30;20411;-58
2021/12/12 06:52:37;;;;;;;0.00;0.00;;;3.70;94.40;;;;;;3918730;30;20542;-58
2021/12/12 06:55:00;;;;;;;0.00;0.00;;;3.80;94.30;;;;;;3918791;30;20056;-58
2021/12/12 06:57:24;;;;;;;0.00;0.00;;;3.70;94.30;;;;;;3906576;30;20053;-59
2021/12/12 06:59:49;;;;;;;0.00;0.00;;;3.70;94.40;;;;;;3930797;30;20134;-59
2021/12/12 07:02:12;;;;;;;0.00;0.00;;;3.70;94.30;;;;;;3930853;30;20389;-59
2021/12/12 07:04:37;;;;;;;0.00;0.00;;;3.60;93.80;;;;;;3918595;30;20092;-58
2021/12/12 07:07:02;;;;;;;0.00;0.00;;;3.50;93.10;;;;;;3919127;30;20067;-58
2021/12/12 07:09:30;;;;;;;0.00;0.00;;;3.50;93.00;;;;;;3931071;30;20052;-58
2021/12/12 07:11:54;;;;;;;0.00;0.00;;;3.50;93.50;;;;;;3918142;30;20475;-59
2021/12/12 07:14:17;;;;;;;0.00;0.00;;;3.40;93.80;;;;;;3906653;30;20055;-58
2021/12/12 07:16:40;;;;;;;0.00;0.00;;;3.50;93.80;;;;;;3918353;30;20056;-58
2021/12/12 07:19:04;;;;;;;0.00;0.00;;;3.40;93.80;;;;;;3918498;30;20068;-58
2021/12/12 07:21:30;;;;;;;0.00;0.00;;;3.40;93.60;;;;;;3906311;30;20057;-57
2021/12/12 07:23:54;;;;;;;0.00;0.00;;;3.30;92.30;;;;;;3918189;30;20121;-58
2021/12/12 07:26:24;;;;;;;0.00;0.00;;;3.20;91.10;;;;;;3906718;30;20435;-59
2021/12/12 07:28:47;;;;;;;0.00;0.00;;;3.00;91.00;;;;;;3918491;30;20080;-59
2021/12/12 07:31:18;;;;;;;0.00;0.00;;;3.00;90.80;;;;;;3918405;30;20063;-57
2021/12/12 07:33:44;;;;;;;0.00;0.00;;;3.00;90.80;;;;;;3918409;30;20143;-59
2021/12/12 07:36:10;;;;;;;0.00;0.00;;;3.00;91.00;;;;;;3918032;30;20605;-58
2021/12/12 07:38:34;;;;;;;0.00;0.00;;;3.20;91.00;;;;;;3918383;30;20092;-59
2021/12/12 07:40:58;;;;;;;0.00;0.00;;;3.50;90.90;;;;;;3917985;30;20052;-59
2021/12/12 07:43:21;;;;;;;0.00;0.00;;;3.60;90.70;;;;;;3917392;30;20087;-60
2021/12/12 07:45:44;;;;;;;0.00;0.00;;;3.80;90.70;;;;;;3918220;30;20667;-60
2021/12/12 07:48:10;;;;;;;0.00;0.00;;;4.00;90.50;;;;;;3918036;30;20439;-60
2021/12/12 07:50:32;;;;;;;0.00;0.00;;;4.40;90.40;;;;;;3917751;30;20084;-59
2021/12/12 07:52:55;;;;;;;0.00;0.00;;;4.90;90.10;;;;;;3918126;30;20060;-59
2021/12/12 07:55:18;;;;;;;0.00;0.00;;;5.30;89.40;;;;;;3917862;30;20064;-59
2021/12/12 07:57:40;;;;;;;0.00;0.00;;;5.70;88.50;;;;;;3917746;30;20057;-57
2021/12/12 08:00:08;;;;;;;0.00;0.00;;;5.80;87.70;;;;;;3917593;30;20554;-57
2021/12/12 08:02:33;;;;;;;0.00;0.00;;;6.00;87.10;;;;;;3918221;30;20060;-58
2021/12/12 08:04:57;;;;;;;0.00;0.00;;;6.10;84.70;;;;;;3917974;30;20056;-57
2021/12/12 08:07:22;;;;;;;0.00;0.00;;;6.30;83.00;;;;;;3918127;30;20516;-58
2021/12/12 08:09:48;;;;;;;0.00;0.00;;;6.40;81.00;;;;;;3918001;30;20110;-57
2021/12/12 08:12:14;;;;;;;0.00;0.00;;;6.50;82.00;;;;;;3917145;30;20053;-59
2021/12/12 08:14:37;;;;;;;0.00;0.00;;;6.30;83.10;;;;;;3917669;30;20060;-58
2021/12/12 08:17:01;;;;;;;0.00;0.00;;;6.20;84.00;;;;;;3917621;30;20139;-58
2021/12/12 08:19:26;;;;;;;0.00;0.00;;;5.70;84.90;;;;;;3929942;30;20083;-57
2021/12/12 08:21:49;;;;;;;0.00;0.00;;;5.50;85.70;;;;;;3916983;30;20542;-58
2021/12/12 08:24:13;;;;;;;0.00;0.00;;;5.30;85.70;;;;;;3917583;30;20167;-58
2021/12/12 08:26:38;;;;;;;0.00;0.00;;;5.50;85.80;;;;;;3917412;30;20064;-59
2021/12/12 08:29:04;;;;;;;0.00;0.00;;;5.80;85.00;;;;;;3917563;30;20052;-58
2021/12/12 08:31:27;;;;;;;0.00;0.00;;;6.10;84.40;;;;;;3917134;30;20060;-58
2021/12/12 08:33:49;;;;;;;0.00;0.00;;;6.50;83.40;;;;;;3916991;30;20052;-58
2021/12/12 08:36:15;;;;;;;0.00;0.00;;;6.80;82.30;;;;;;3917541;30;20051;-57
2021/12/12 08:38:38;;;;;;;0.00;0.00;;;6.40;82.40;;;;;;3917380;30;20139;-58
2021/12/12 08:41:02;;;;;;;0.00;0.00;;;5.80;84.00;;;;;;3917164;30;20632;-57
2021/12/12 08:43:26;;;;;;;0.00;0.00;;;5.80;84.90;;;;;;3917333;30;20052;-58
2021/12/12 08:46:03;;;;;;;0.00;0.00;;;6.00;84.40;;;;;;3916975;30;20059;-58
2021/12/12 08:48:30;;;;;;;0.00;0.00;;;6.30;83.80;;;;;;3917337;30;20151;-58
2021/12/12 08:50:58;;;;;;;0.00;0.00;;;6.60;82.60;;;;;;3904728;30;20057;-60
2021/12/12 08:53:21;;;;;;;0.00;0.00;;;6.80;82.40;;;;;;3916995;30;20133;-58
2021/12/12 08:55:48;;;;;;;0.00;0.00;;;7.10;80.50;;;;;;3904903;30;20062;-58
2021/12/12 08:58:17;;;;;;;0.00;0.00;;;7.40;79.20;;;;;;3916494;30;20060;-58
2021/12/12 09:00:58;;;;;;;0.00;0.00;;;7.60;77.90;;;;;;3905108;30;20064;-59
2021/12/12 09:03:37;;;;;;;0.00;0.00;;;7.60;75.80;;;;;;3917430;30;20496;-60
2021/12/12 09:06:01;;;;;;;0.00;0.00;;;7.70;74.60;;;;;;3916809;30;20708;-61
2021/12/12 09:08:35;;;;;;;0.00;0.00;;;8.30;74.00;;;;;;3917192;30;20060;-62
2021/12/12 09:11:09;;;;;;;0.00;0.00;;;8.50;71.70;;;;;;3916927;30;20084;-61
2021/12/12 09:13:47;;;;;;;0.00;0.00;;;8.80;72.00;;;;;;3917499;30;20068;-63
2021/12/12 09:16:16;;;;;;;0.00;0.00;;;9.30;69.80;;;;;;3917151;30;20048;-61
2021/12/12 09:18:41;;;;;;;0.00;0.00;;;9.40;69.60;;;;;;3917267;30;20084;-61
2021/12/12 09:21:22;;;;;;;0.00;0.00;;;9.80;68.20;;;;;;3916833;30;20049;-60
2021/12/12 09:23:50;;;;;;;0.00;0.00;;;9.70;66.80;;;;;;3917146;30;20064;-61
2021/12/12 09:26:18;;;;;;;0.00;0.00;;;9.70;67.10;;;;;;3916696;30;20044;-61
2021/12/12 09:29:18;;;;;;;0.00;0.00;;;10.20;67.20;;;;;;3916953;30;20090;-60
2021/12/12 09:31:51;;;;;;;0.00;0.00;;;10.80;65.30;;;;;;3915352;30;20059;-60
2021/12/12 09:34:34;;;;;;;0.00;0.00;;;10.80;64.00;;;;;;3915082;30;20101;-61
2021/12/12 09:37:19;;;;;;;0.00;0.00;;;10.40;63.80;;;;;;3903462;30;20053;-61
2021/12/12 09:40:02;;;;;;;0.00;0.00;;;10.30;64.70;;;;;;3915242;30;20057;-62
2021/12/12 09:42:49;;;;;;;0.00;0.00;;;10.60;64.10;;;;;;3915378;30;20064;-60
2021/12/12 09:45:36;;;;;;;0.00;0.00;;;11.00;63.30;;;;;;3915536;30;20057;-62
2021/12/12 09:51:17;;;;;;;0.00;0.00;;;11.60;59.90;;;;;;3916414;30;20053;-60
2021/12/12 09:53:54;;;;;;;0.00;0.00;;;11.80;59.60;;;;;;3928898;30;20056;-60
2021/12/12 09:56:59;;;;;;;0.00;0.00;;;12.30;58.40;;;;;;3904238;30;20126;-60
2021/12/12 09:59:50;;;;;;;0.00;0.00;;;12.40;58.40;;;;;;3916707;30;20154;-61
2021/12/12 10:02:28;;;;;;;0.00;0.00;;;12.50;56.30;;;;;;3928071;30;20059;-62
2021/12/12 10:05:29;;;;;;;0.00;0.00;;;12.40;55.90;;;;;;3916961;30;20068;-61
2021/12/12 10:08:29;;;;;;;0.00;0.00;;;11.70;55.80;;;;;;3917225;30;20614;-60
2021/12/12 10:11:06;;;;;;;0.00;0.00;;;11.70;57.20;;;;;;3928836;30;20109;-60
2021/12/12 10:13:41;;;;;;;0.00;0.00;;;11.30;56.90;;;;;;3904828;30;20074;-60
2021/12/12 10:16:14;;;;;;;0.00;0.00;;;10.80;58.70;;;;;;3916514;30;20697;-61
2021/12/12 10:18:50;;;;;;;0.00;0.00;;;10.50;59.30;;;;;;3928935;30;20056;-59
2021/12/12 10:21:30;;;;;;;0.00;0.00;;;9.80;59.90;;;;;;3916458;30;20613;-60
2021/12/12 10:24:23;;;;;;;0.00;0.00;;;9.40;61.90;;;;;;3928276;30;20048;-61
2021/12/12 10:26:55;;;;;;;0.00;0.00;;;9.10;63.10;;;;;;3916666;30;20114;-60
2021/12/12 10:29:37;;;;;;;0.00;0.00;;;8.90;63.90;;;;;;3916495;30;20053;-59
2021/12/12 10:32:12;;;;;;;0.00;0.00;;;8.60;65.30;;;;;;3915925;30;20056;-60
2021/12/12 10:34:45;;;;;;;0.00;0.00;;;8.80;65.50;;;;;;3916189;30;20088;-65
2021/12/12 10:37:23;;;;;;;0.00;0.00;;;8.30;66.30;;;;;;3916414;30;20049;-64
2021/12/12 10:39:54;;;;;;;0.00;0.00;;;8.10;67.20;;;;;;3916160;30;20064;-65
2021/12/12 10:42:23;;;;;;;0.00;0.00;;;8.10;67.50;;;;;;3916480;30;20051;-64
2021/12/12 10:44:54;;;;;;;0.00;0.00;;;8.40;67.50;;;;;;3916193;30;20099;-64
2021/12/12 10:47:40;;;;;;;0.00;0.00;;;8.50;67.40;;;;;;3928498;30;20070;-65
2021/12/12 10:50:12;;;;;;;0.00;0.00;;;8.50;67.30;;;;;;3916087;30;20114;-62
2021/12/12 10:52:38;;;;;;;;;;;8.50;67.60;;;;;;3929082;30;20053;-62
2021/12/12 10:55:12;;;;;;;0.00;0.00;;;8.60;67.50;;;;;;3916522;30;19961;-62
2021/12/12 10:57:37;;;;;;;0.00;0.00;;;8.60;67.90;;;;;;3916394;30;20052;-62
2021/12/12 11:00:16;;;;;;;0.00;0.00;;;8.60;67.80;;;;;;3916063;30;20624;-62
2021/12/12 11:03:10;;;;;;;0.00;0.00;;;8.10;68.30;;;;;;3916248;30;20156;-62
2021/12/12 11:05:40;;;;;;;0.00;0.00;;;7.90;69.90;;;;;;3916376;30;20052;-62
2021/12/12 11:08:24;;;;;;;0.00;0.00;;;8.00;70.40;;;;;;3915625;30;20059;-62
2021/12/12 11:10:59;;;;;;;0.00;0.00;;;8.20;70.10;;;;;;3916048;30;20087;-61
2021/12/12 11:13:49;;;;;;;0.00;0.00;;;8.50;69.20;;;;;;3916245;30;20056;-63
2021/12/12 11:16:18;;;;;;;0.00;0.00;;;8.60;69.20;;;;;;3915952;30;20049;-62
2021/12/12 11:18:54;;;;;;;0.00;0.00;;;8.80;68.60;;;;;;3918449;30;20463;-63
2021/12/12 11:21:39;;;;;;;0.00;0.00;;;8.90;68.60;;;;;;3918538;30;20181;-63
2021/12/12 11:24:14;;;;;;;0.00;0.00;;;8.80;68.30;;;;;;3918538;30;20060;-62
2021/12/12 11:26:46;;;;;;;0.00;0.00;;;8.40;68.80;;;;;;3918818;30;20136;-64
2021/12/12 11:29:16;;;;;;;0.00;0.00;;;8.20;69.50;;;;;;3918763;30;20084;-65
2021/12/12 11:31:55;;;;;;;0.00;0.00;;;8.20;69.50;;;;;;3930798;30;20051;-63
2021/12/12 11:34:36;;;;;;;0.00;0.00;;;8.10;69.30;;;;;;3930456;30;20534;-62
2021/12/12 11:37:12;;;;;;;0.00;0.00;;;8.10;69.80;;;;;;3918600;30;20053;-65
2021/12/12 11:39:58;;;;;;;0.00;0.00;;;8.20;70.20;;;;;;3918690;30;20056;-62
2021/12/12 11:42:33;;;;;;;0.00;0.00;;;8.10;70.30;;;;;;3930165;30;20481;-63
2021/12/12 11:45:00;;;;;;;0.00;0.00;;;7.90;70.90;;;;;;3918515;30;20139;-63
2021/12/12 11:47:43;;;;;;;0.00;0.00;;;8.10;71.20;;;;;;3918479;30;20152;-64
2021/12/12 11:50:14;;;;;;;0.00;0.00;;;8.30;70.70;;;;;;3918087;30;22334;-63
2021/12/12 11:52:55;;;;;;;0.00;0.00;;;8.40;70.10;;;;;;3918408;30;20134;-62
2021/12/12 11:55:56;;;;;;;0.00;0.00;;;8.10;70.90;;;;;;3918434;30;20056;-62
2021/12/12 11:58:46;;;;;;;0.00;0.00;;;8.00;71.20;;;;;;3930026;30;20427;-62
2021/12/12 12:01:21;;;;;;;0.00;0.00;;;8.40;70.60;;;;;;3918141;30;20065;-60
2021/12/12 12:03:59;;;;;;;0.00;0.00;;;8.30;70.10;;;;;;3918360;30;20057;-62
2021/12/12 12:06:45;;;;;;;0.00;0.00;;;7.90;70.80;;;;;;3917872;30;20045;-62
2021/12/12 12:09:37;;;;;;;0.00;0.00;;;7.70;71.40;;;;;;3930532;30;20056;-63
2021/12/12 12:12:14;;;;;;;0.00;0.00;;;7.80;71.80;;;;;;3917698;30;20049;-62
2021/12/12 12:14:49;;;;;;;0.00;0.00;;;7.90;71.30;;;;;;3917934;30;20057;-62
2021/12/12 12:17:41;;;;;;;0.00;0.00;;;7.90;71.10;;;;;;3930546;30;20083;-63
2021/12/12 12:20:33;;;;;;;0.00;0.00;;;7.90;70.80;;;;;;3917880;30;20144;-63
2021/12/12 12:23:05;;;;;;;0.00;0.00;;;7.70;71.90;;;;;;3917919;30;20084;-63
2021/12/12 12:28:28;;;;;;;0.00;0.00;;;7.90;71.60;;;;;;3917600;30;20049;-62
2021/12/12 12:31:02;;;;;;;0.00;0.00;;;7.90;71.40;;;;;;3929924;30;20072;-63
2021/12/12 12:33:43;;;;;;;0.00;0.00;;;7.90;70.90;;;;;;3905893;30;20171;-63
2021/12/12 12:36:38;;;;;;;0.00;0.00;;;7.90;71.10;;;;;;3917516;30;20052;-62
2021/12/12 12:39:06;;;;;;;0.00;0.00;;;7.50;71.80;;;;;;3917846;30;20111;-62
2021/12/12 12:41:41;;;;;;;0.00;0.00;;;7.50;71.50;;;;;;3917461;30;20079;-62
2021/12/12 12:44:29;;;;;;;0.00;0.00;;;7.50;71.30;;;;;;3917270;30;20599;-62
2021/12/12 12:47:20;;;;;;;0.00;0.00;;;7.50;72.20;;;;;;3920404;30;20059;-62
2021/12/12 12:50:16;;;;;;;0.00;0.00;;;7.40;72.70;;;;;;3917448;30;20053;-62
2021/12/12 12:53:16;;;;;;;0.00;0.00;;;7.20;72.70;;;;;;3929520;30;20416;-62
2021/12/12 12:56:09;;;;;;;0.00;0.00;;;6.90;72.80;;;;;;3929784;30;20139;-62
2021/12/12 12:58:53;;;;;;;0.00;0.00;;;7.10;73.10;;;;;;3917094;30;20080;-63
2021/12/12 13:01:35;;;;;;;0.00;0.00;;;7.40;72.70;;;;;;3917036;30;20508;-61
2021/12/12 13:04:29;;;;;;;0.00;0.00;;;7.50;72.20;;;;;;3917049;30;20098;-62
2021/12/12 13:07:09;;;;;;;0.00;0.00;;;7.40;72.50;;;;;;3917298;30;20048;-62
2021/12/12 13:09:50;;;;;;;0.00;0.00;;;7.50;72.40;;;;;;3917485;30;20562;-64
2021/12/12 13:12:42;;;;;;;0.00;0.00;;;7.50;72.20;;;;;;3916713;30;20044;-63
2021/12/12 13:15:07;;;;;;;;;;;7.40;72.60;;;;;;3917818;30;20928;-62
2021/12/12 13:17:42;;;;;;;0.00;0.00;;;7.70;72.50;;;;;;3917376;30;19934;-63
2021/12/12 13:20:19;;;;;;;0.00;0.00;;;7.70;72.40;;;;;;3916959;30;20139;-63
2021/12/12 13:22:55;;;;;;;0.00;0.00;;;7.90;72.20;;;;;;3917132;30;20160;-62
2021/12/12 13:25:20;;;;;;;0.00;0.00;;;8.00;72.40;;;;;;3929494;30;20052;-63
2021/12/12 13:28:18;;;;;;;0.00;0.00;;;7.90;72.50;;;;;;3917135;30;20055;-61
2021/12/12 13:30:58;;;;;;;0.00;0.00;;;7.90;72.30;;;;;;3916130;30;20703;-62
2021/12/12 13:33:28;;;;;;;0.00;0.00;;;7.60;72.30;;;;;;3916297;30;20130;-62
2021/12/12 13:36:28;;;;;;;0.00;0.00;;;7.60;72.70;;;;;;3916173;30;20056;-63
2021/12/12 13:39:09;;;;;;;0.00;0.00;;;7.50;72.70;;;;;;3904710;30;20166;-62
2021/12/12 13:41:49;;;;;;;0.00;0.00;;;7.30;73.40;;;;;;3915906;30;20100;-62
2021/12/12 13:44:39;;;;;;;0.00;0.00;;;7.20;74.00;;;;;;3916561;30;20083;-62